sensor_id;sensor_type;location;lat;lon;timestamp;P1;durP1;ratioP1;P2;durP2;ratioP2
19161;SDS011;9713;48.140;11.530;2023-05-07T00:02:33;16.07;;;10.93;;
19161;SDS011;9713;48.140;11.530;2023-05-07T00:06:18;15.07;;;10.50;;
19161;SDS011;9713;48.140;11.530;2023-05-07T00:10:01;14.30;;;10.33;;
19161;SDS011;9713;48.140;11.530;2023-05-07T00:13:44;14.57;;;10.57;;
19161;SDS011;9713;48.140;11.530;2023-05-07T00:17:27;15.37;;;9.07;;
19161;SDS011;9713;48.140;11.530;2023-05-07T00:21:10;13.63;;;9.67;;
19161;SDS011;9713;48.140;11.530;2023-05-07T00:24:54;16.03;;;9.83;;
19161;SDS011;9713;48.140;11.530;2023-05-07T00:28:37;14.53;;;9.27;;
19161;SDS011;9713;48.140;11.530;2023-05-07T00:32:20;13.77;;;9.00;;
19161;SDS011;9713;48.140;11.530;2023-05-07T00:36:03;9.73;;;8.13;;
19161;SDS011;9713;48.140;11.530;2023-05-07T00:39:46;13.53;;;8.90;;
19161;SDS011;9713;48.140;11.530;2023-05-07T00:43:30;13.67;;;8.37;;
19161;SDS011;9713;48.140;11.530;2023-05-07T00:47:13;13.73;;;8.17;;
19161;SDS011;9713;48.140;11.530;2023-05-07T00:50:56;10.77;;;8.53;;
19161;SDS011;9713;48.140;11.530;2023-05-07T00:54:40;12.60;;;7.80;;
19161;SDS011;9713;48.140;11.530;2023-05-07T00:58:23;10.70;;;7.53;;
19161;SDS011;9713;48.140;11.530;2023-05-07T01:02:07;12.07;;;7.80;;
19161;SDS011;9713;48.140;11.530;2023-05-07T01:05:50;11.33;;;7.40;;
19161;SDS011;9713;48.140;11.530;2023-05-07T01:09:34;17.97;;;11.53;;
19161;SDS011;9713;48.140;11.530;2023-05-07T01:13:17;11.67;;;8.80;;
19161;SDS011;9713;48.140;11.530;2023-05-07T01:17:00;10.37;;;7.13;;
19161;SDS011;9713;48.140;11.530;2023-05-07T01:20:44;10.67;;;7.90;;
19161;SDS011;9713;48.140;11.530;2023-05-07T01:24:28;11.30;;;7.60;;
19161;SDS011;9713;48.140;11.530;2023-05-07T01:28:12;11.20;;;7.80;;
19161;SDS011;9713;48.140;11.530;2023-05-07T01:31:55;10.30;;;8.03;;
19161;SDS011;9713;48.140;11.530;2023-05-07T01:35:43;8.23;;;6.70;;
19161;SDS011;9713;48.140;11.530;2023-05-07T01:39:29;14.47;;;7.40;;
19161;SDS011;9713;48.140;11.530;2023-05-07T01:43:12;9.70;;;7.37;;
19161;SDS011;9713;48.140;11.530;2023-05-07T01:46:55;10.93;;;7.00;;
19161;SDS011;9713;48.140;11.530;2023-05-07T01:50:39;11.13;;;7.57;;
19161;SDS011;9713;48.140;11.530;2023-05-07T01:54:24;10.70;;;6.97;;
19161;SDS011;9713;48.140;11.530;2023-05-07T01:58:10;9.87;;;7.17;;
19161;SDS011;9713;48.140;11.530;2023-05-07T02:01:55;8.17;;;6.97;;
19161;SDS011;9713;48.140;11.530;2023-05-07T02:05:38;10.63;;;7.10;;
19161;SDS011;9713;48.140;11.530;2023-05-07T02:09:21;8.30;;;6.90;;
19161;SDS011;9713;48.140;11.530;2023-05-07T02:13:14;8.30;;;6.40;;
19161;SDS011;9713;48.140;11.530;2023-05-07T02:16:57;8.60;;;6.70;;
19161;SDS011;9713;48.140;11.530;2023-05-07T02:20:40;7.40;;;6.03;;
19161;SDS011;9713;48.140;11.530;2023-05-07T02:24:22;8.20;;;6.47;;
19161;SDS011;9713;48.140;11.530;2023-05-07T02:28:05;8.07;;;6.17;;
19161;SDS011;9713;48.140;11.530;2023-05-07T02:31:49;8.83;;;6.57;;
19161;SDS011;9713;48.140;11.530;2023-05-07T02:35:34;7.80;;;6.23;;
19161;SDS011;9713;48.140;11.530;2023-05-07T02:39:16;7.20;;;5.77;;
19161;SDS011;9713;48.140;11.530;2023-05-07T02:42:59;7.33;;;6.27;;
19161;SDS011;9713;48.140;11.530;2023-05-07T02:46:42;7.60;;;5.97;;
19161;SDS011;9713;48.140;11.530;2023-05-07T02:50:26;9.17;;;6.13;;
19161;SDS011;9713;48.140;11.530;2023-05-07T02:54:10;8.70;;;5.67;;
19161;SDS011;9713;48.140;11.530;2023-05-07T02:57:52;7.53;;;5.93;;
19161;SDS011;9713;48.140;11.530;2023-05-07T03:01:35;7.37;;;5.43;;
19161;SDS011;9713;48.140;11.530;2023-05-07T03:05:18;9.17;;;5.83;;
19161;SDS011;9713;48.140;11.530;2023-05-07T03:09:02;9.77;;;5.80;;
19161;SDS011;9713;48.140;11.530;2023-05-07T03:12:45;7.00;;;5.53;;
19161;SDS011;9713;48.140;11.530;2023-05-07T03:16:28;7.47;;;5.77;;
19161;SDS011;9713;48.140;11.530;2023-05-07T03:20:11;9.90;;;5.63;;
19161;SDS011;9713;48.140;11.530;2023-05-07T03:23:54;11.77;;;5.90;;
19161;SDS011;9713;48.140;11.530;2023-05-07T03:27:39;7.30;;;5.60;;
19161;SDS011;9713;48.140;11.530;2023-05-07T03:31:23;8.37;;;5.37;;
19161;SDS011;9713;48.140;11.530;2023-05-07T03:35:06;6.23;;;5.13;;
19161;SDS011;9713;48.140;11.530;2023-05-07T03:38:49;6.47;;;4.87;;
19161;SDS011;9713;48.140;11.530;2023-05-07T03:42:33;7.57;;;5.13;;
19161;SDS011;9713;48.140;11.530;2023-05-07T03:46:17;5.77;;;5.17;;
19161;SDS011;9713;48.140;11.530;2023-05-07T03:50:00;8.53;;;4.90;;
19161;SDS011;9713;48.140;11.530;2023-05-07T03:53:43;7.47;;;5.20;;
19161;SDS011;9713;48.140;11.530;2023-05-07T03:57:25;6.77;;;5.30;;
19161;SDS011;9713;48.140;11.530;2023-05-07T04:01:08;7.93;;;5.43;;
19161;SDS011;9713;48.140;11.530;2023-05-07T04:04:52;8.40;;;5.13;;
19161;SDS011;9713;48.140;11.530;2023-05-07T04:08:35;8.83;;;5.27;;
19161;SDS011;9713;48.140;11.530;2023-05-07T04:12:18;6.90;;;5.20;;
19161;SDS011;9713;48.140;11.530;2023-05-07T04:16:01;6.33;;;5.07;;
19161;SDS011;9713;48.140;11.530;2023-05-07T04:19:45;6.90;;;4.80;;
19161;SDS011;9713;48.140;11.530;2023-05-07T04:23:29;5.67;;;4.90;;
19161;SDS011;9713;48.140;11.530;2023-05-07T04:27:12;7.23;;;5.27;;
19161;SDS011;9713;48.140;11.530;2023-05-07T04:30:54;6.27;;;5.33;;
19161;SDS011;9713;48.140;11.530;2023-05-07T04:34:37;7.43;;;5.20;;
19161;SDS011;9713;48.140;11.530;2023-05-07T04:38:20;7.23;;;5.50;;
19161;SDS011;9713;48.140;11.530;2023-05-07T04:42:06;5.43;;;4.60;;
19161;SDS011;9713;48.140;11.530;2023-05-07T04:45:50;6.87;;;5.07;;
19161;SDS011;9713;48.140;11.530;2023-05-07T04:49:33;7.60;;;5.70;;
19161;SDS011;9713;48.140;11.530;2023-05-07T04:53:16;8.17;;;5.37;;
19161;SDS011;9713;48.140;11.530;2023-05-07T04:56:58;6.63;;;5.30;;
19161;SDS011;9713;48.140;11.530;2023-05-07T05:00:43;7.23;;;5.80;;
19161;SDS011;9713;48.140;11.530;2023-05-07T05:04:25;8.03;;;5.70;;
19161;SDS011;9713;48.140;11.530;2023-05-07T05:08:08;6.53;;;5.67;;
19161;SDS011;9713;48.140;11.530;2023-05-07T05:11:51;6.40;;;5.10;;
19161;SDS011;9713;48.140;11.530;2023-05-07T05:15:34;6.43;;;5.13;;
19161;SDS011;9713;48.140;11.530;2023-05-07T05:19:18;6.10;;;5.50;;
19161;SDS011;9713;48.140;11.530;2023-05-07T05:23:00;7.60;;;5.67;;
19161;SDS011;9713;48.140;11.530;2023-05-07T05:26:43;7.10;;;5.60;;
19161;SDS011;9713;48.140;11.530;2023-05-07T05:30:26;7.77;;;5.50;;
19161;SDS011;9713;48.140;11.530;2023-05-07T05:34:09;6.73;;;5.13;;
19161;SDS011;9713;48.140;11.530;2023-05-07T05:37:53;7.57;;;5.80;;
19161;SDS011;9713;48.140;11.530;2023-05-07T05:41:36;6.53;;;5.50;;
19161;SDS011;9713;48.140;11.530;2023-05-07T05:45:18;8.13;;;6.20;;
19161;SDS011;9713;48.140;11.530;2023-05-07T05:49:01;7.17;;;5.60;;
19161;SDS011;9713;48.140;11.530;2023-05-07T05:52:44;6.87;;;5.70;;
19161;SDS011;9713;48.140;11.530;2023-05-07T05:56:28;6.97;;;5.37;;
19161;SDS011;9713;48.140;11.530;2023-05-07T06:00:11;6.57;;;5.30;;
19161;SDS011;9713;48.140;11.530;2023-05-07T06:03:55;7.00;;;4.70;;
19161;SDS011;9713;48.140;11.530;2023-05-07T06:07:38;5.93;;;4.83;;
19161;SDS011;9713;48.140;11.530;2023-05-07T06:11:21;5.67;;;4.60;;
19161;SDS011;9713;48.140;11.530;2023-05-07T06:15:05;8.37;;;5.60;;
19161;SDS011;9713;48.140;11.530;2023-05-07T06:18:49;7.27;;;4.80;;
19161;SDS011;9713;48.140;11.530;2023-05-07T06:22:31;5.10;;;4.60;;
19161;SDS011;9713;48.140;11.530;2023-05-07T06:26:14;5.20;;;4.70;;
19161;SDS011;9713;48.140;11.530;2023-05-07T06:29:57;8.10;;;5.27;;
19161;SDS011;9713;48.140;11.530;2023-05-07T06:33:41;6.37;;;4.40;;
19161;SDS011;9713;48.140;11.530;2023-05-07T06:37:24;6.60;;;4.27;;
19161;SDS011;9713;48.140;11.530;2023-05-07T06:41:07;6.30;;;4.33;;
19161;SDS011;9713;48.140;11.530;2023-05-07T06:44:49;4.87;;;3.80;;
19161;SDS011;9713;48.140;11.530;2023-05-07T06:48:32;5.27;;;4.20;;
19161;SDS011;9713;48.140;11.530;2023-05-07T06:52:16;5.10;;;3.73;;
19161;SDS011;9713;48.140;11.530;2023-05-07T06:55:59;5.20;;;4.10;;
19161;SDS011;9713;48.140;11.530;2023-05-07T06:59:41;5.47;;;3.73;;
19161;SDS011;9713;48.140;11.530;2023-05-07T07:03:24;4.27;;;3.43;;
19161;SDS011;9713;48.140;11.530;2023-05-07T07:07:07;4.00;;;3.60;;
19161;SDS011;9713;48.140;11.530;2023-05-07T07:10:51;6.40;;;3.80;;
19161;SDS011;9713;48.140;11.530;2023-05-07T07:14:34;4.07;;;3.67;;
19161;SDS011;9713;48.140;11.530;2023-05-07T07:18:17;4.67;;;4.07;;
19161;SDS011;9713;48.140;11.530;2023-05-07T07:21:59;5.20;;;3.90;;
19161;SDS011;9713;48.140;11.530;2023-05-07T07:25:42;5.17;;;4.00;;
19161;SDS011;9713;48.140;11.530;2023-05-07T07:29:26;5.97;;;5.07;;
19161;SDS011;9713;48.140;11.530;2023-05-07T07:33:09;4.33;;;3.67;;
19161;SDS011;9713;48.140;11.530;2023-05-07T07:36:54;7.43;;;4.30;;
19161;SDS011;9713;48.140;11.530;2023-05-07T07:40:37;5.70;;;4.70;;
19161;SDS011;9713;48.140;11.530;2023-05-07T07:44:20;5.67;;;3.80;;
19161;SDS011;9713;48.140;11.530;2023-05-07T07:48:04;7.07;;;4.10;;
19161;SDS011;9713;48.140;11.530;2023-05-07T07:51:47;4.80;;;3.93;;
19161;SDS011;9713;48.140;11.530;2023-05-07T07:55:30;4.43;;;3.80;;
19161;SDS011;9713;48.140;11.530;2023-05-07T07:59:13;4.93;;;3.70;;
19161;SDS011;9713;48.140;11.530;2023-05-07T08:02:59;7.43;;;3.10;;
19161;SDS011;9713;48.140;11.530;2023-05-07T08:06:45;4.70;;;3.33;;
19161;SDS011;9713;48.140;11.530;2023-05-07T08:10:28;5.18;;;3.47;;
19161;SDS011;9713;48.140;11.530;2023-05-07T08:14:15;3.92;;;3.20;;
19161;SDS011;9713;48.140;11.530;2023-05-07T08:17:58;8.93;;;2.70;;
19161;SDS011;9713;48.140;11.530;2023-05-07T08:21:41;6.40;;;2.80;;
19161;SDS011;9713;48.140;11.530;2023-05-07T08:25:25;4.90;;;3.40;;
19161;SDS011;9713;48.140;11.530;2023-05-07T08:29:08;5.63;;;4.00;;
19161;SDS011;9713;48.140;11.530;2023-05-07T08:32:51;5.53;;;3.60;;
19161;SDS011;9713;48.140;11.530;2023-05-07T08:36:34;7.27;;;3.73;;
19161;SDS011;9713;48.140;11.530;2023-05-07T08:40:16;4.75;;;3.67;;
19161;SDS011;9713;48.140;11.530;2023-05-07T08:44:02;5.73;;;3.40;;
19161;SDS011;9713;48.140;11.530;2023-05-07T08:47:46;4.53;;;3.00;;
19161;SDS011;9713;48.140;11.530;2023-05-07T08:51:29;5.33;;;3.60;;
19161;SDS011;9713;48.140;11.530;2023-05-07T08:55:12;6.03;;;2.77;;
19161;SDS011;9713;48.140;11.530;2023-05-07T08:58:56;4.30;;;3.03;;
19161;SDS011;9713;48.140;11.530;2023-05-07T09:02:41;5.97;;;2.60;;
19161;SDS011;9713;48.140;11.530;2023-05-07T09:06:24;3.37;;;2.67;;
19161;SDS011;9713;48.140;11.530;2023-05-07T09:10:08;4.45;;;3.13;;
19161;SDS011;9713;48.140;11.530;2023-05-07T09:13:53;6.07;;;2.90;;
19161;SDS011;9713;48.140;11.530;2023-05-07T09:17:36;6.63;;;2.97;;
19161;SDS011;9713;48.140;11.530;2023-05-07T09:21:21;6.90;;;3.63;;
19161;SDS011;9713;48.140;11.530;2023-05-07T09:25:04;8.13;;;3.30;;
19161;SDS011;9713;48.140;11.530;2023-05-07T09:28:48;3.38;;;2.67;;
19161;SDS011;9713;48.140;11.530;2023-05-07T09:32:32;3.50;;;2.60;;
19161;SDS011;9713;48.140;11.530;2023-05-07T09:36:16;3.28;;;2.40;;
19161;SDS011;9713;48.140;11.530;2023-05-07T09:40:01;2.55;;;2.20;;
19161;SDS011;9713;48.140;11.530;2023-05-07T09:43:48;3.45;;;2.17;;
19161;SDS011;9713;48.140;11.530;2023-05-07T09:47:36;2.90;;;1.88;;
19161;SDS011;9713;48.140;11.530;2023-05-07T09:51:21;5.55;;;2.20;;
19161;SDS011;9713;48.140;11.530;2023-05-07T09:55:12;4.05;;;2.60;;
19161;SDS011;9713;48.140;11.530;2023-05-07T09:58:56;3.47;;;2.00;;
19161;SDS011;9713;48.140;11.530;2023-05-07T10:02:40;6.00;;;3.17;;
19161;SDS011;9713;48.140;11.530;2023-05-07T10:06:27;16.90;;;9.10;;
19161;SDS011;9713;48.140;11.530;2023-05-07T10:10:12;5.05;;;3.88;;
19161;SDS011;9713;48.140;11.530;2023-05-07T10:13:56;7.38;;;3.63;;
19161;SDS011;9713;48.140;11.530;2023-05-07T10:17:39;8.30;;;5.00;;
19161;SDS011;9713;48.140;11.530;2023-05-07T10:21:23;7.20;;;3.60;;
19161;SDS011;9713;48.140;11.530;2023-05-07T10:25:06;4.05;;;2.97;;
19161;SDS011;9713;48.140;11.530;2023-05-07T10:28:56;4.43;;;2.65;;
19161;SDS011;9713;48.140;11.530;2023-05-07T10:32:42;5.38;;;3.08;;
19161;SDS011;9713;48.140;11.530;2023-05-07T10:36:27;5.75;;;3.65;;
19161;SDS011;9713;48.140;11.530;2023-05-07T10:40:10;5.20;;;2.83;;
19161;SDS011;9713;48.140;11.530;2023-05-07T10:43:56;3.78;;;2.78;;
19161;SDS011;9713;48.140;11.530;2023-05-07T10:52:12;3.33;;;2.33;;
19161;SDS011;9713;48.140;11.530;2023-05-07T11:04:33;2.88;;;2.17;;
19161;SDS011;9713;48.140;11.530;2023-05-07T11:08:16;3.75;;;2.30;;
19161;SDS011;9713;48.140;11.530;2023-05-07T11:11:59;4.82;;;2.35;;
19161;SDS011;9713;48.140;11.530;2023-05-07T11:15:43;2.83;;;2.30;;
19161;SDS011;9713;48.140;11.530;2023-05-07T11:23:55;3.80;;;2.40;;
19161;SDS011;9713;48.140;11.530;2023-05-07T11:27:41;3.72;;;2.10;;
19161;SDS011;9713;48.140;11.530;2023-05-07T11:31:24;4.65;;;2.63;;
19161;SDS011;9713;48.140;11.530;2023-05-07T11:35:11;3.85;;;2.50;;
19161;SDS011;9713;48.140;11.530;2023-05-07T11:38:54;3.15;;;2.28;;
19161;SDS011;9713;48.140;11.530;2023-05-07T11:42:38;3.15;;;2.78;;
19161;SDS011;9713;48.140;11.530;2023-05-07T11:46:24;3.80;;;2.53;;
19161;SDS011;9713;48.140;11.530;2023-05-07T11:50:07;4.25;;;2.28;;
19161;SDS011;9713;48.140;11.530;2023-05-07T11:53:53;3.63;;;2.70;;
19161;SDS011;9713;48.140;11.530;2023-05-07T11:57:36;5.35;;;2.53;;
19161;SDS011;9713;48.140;11.530;2023-05-07T12:01:18;6.13;;;3.38;;
19161;SDS011;9713;48.140;11.530;2023-05-07T12:05:01;6.50;;;2.92;;
19161;SDS011;9713;48.140;11.530;2023-05-07T12:08:46;3.08;;;2.78;;
19161;SDS011;9713;48.140;11.530;2023-05-07T12:12:30;6.15;;;3.42;;
19161;SDS011;9713;48.140;11.530;2023-05-07T12:16:16;3.42;;;2.50;;
19161;SDS011;9713;48.140;11.530;2023-05-07T12:19:59;3.80;;;2.35;;
19161;SDS011;9713;48.140;11.530;2023-05-07T12:23:46;5.72;;;2.58;;
19161;SDS011;9713;48.140;11.530;2023-05-07T12:27:30;3.30;;;2.10;;
19161;SDS011;9713;48.140;11.530;2023-05-07T12:31:13;6.43;;;2.60;;
19161;SDS011;9713;48.140;11.530;2023-05-07T12:34:57;6.57;;;2.72;;
19161;SDS011;9713;48.140;11.530;2023-05-07T12:38:40;7.05;;;3.15;;
19161;SDS011;9713;48.140;11.530;2023-05-07T12:42:22;6.55;;;4.75;;
19161;SDS011;9713;48.140;11.530;2023-05-07T12:46:08;4.53;;;2.20;;
19161;SDS011;9713;48.140;11.530;2023-05-07T12:49:52;4.82;;;2.88;;
19161;SDS011;9713;48.140;11.530;2023-05-07T12:53:39;3.03;;;2.33;;
19161;SDS011;9713;48.140;11.530;2023-05-07T12:57:24;4.28;;;2.50;;
19161;SDS011;9713;48.140;11.530;2023-05-07T13:01:09;3.15;;;2.40;;
19161;SDS011;9713;48.140;11.530;2023-05-07T13:04:57;4.18;;;2.00;;
19161;SDS011;9713;48.140;11.530;2023-05-07T13:08:46;2.90;;;2.13;;
19161;SDS011;9713;48.140;11.530;2023-05-07T13:12:29;4.15;;;2.47;;
19161;SDS011;9713;48.140;11.530;2023-05-07T13:16:13;3.65;;;2.30;;
19161;SDS011;9713;48.140;11.530;2023-05-07T13:20:02;2.80;;;2.30;;
19161;SDS011;9713;48.140;11.530;2023-05-07T13:23:46;3.47;;;2.20;;
19161;SDS011;9713;48.140;11.530;2023-05-07T13:27:29;3.58;;;1.90;;
19161;SDS011;9713;48.140;11.530;2023-05-07T13:31:13;3.88;;;2.40;;
19161;SDS011;9713;48.140;11.530;2023-05-07T13:34:56;4.22;;;2.20;;
19161;SDS011;9713;48.140;11.530;2023-05-07T13:38:39;2.92;;;2.00;;
19161;SDS011;9713;48.140;11.530;2023-05-07T13:42:21;2.25;;;1.90;;
19161;SDS011;9713;48.140;11.530;2023-05-07T13:46:04;3.65;;;2.28;;
19161;SDS011;9713;48.140;11.530;2023-05-07T13:49:48;2.50;;;1.70;;
19161;SDS011;9713;48.140;11.530;2023-05-07T13:53:31;2.65;;;1.63;;
19161;SDS011;9713;48.140;11.530;2023-05-07T13:57:14;1.88;;;1.65;;
19161;SDS011;9713;48.140;11.530;2023-05-07T14:00:57;1.65;;;1.50;;
19161;SDS011;9713;48.140;11.530;2023-05-07T14:04:40;2.08;;;1.80;;
19161;SDS011;9713;48.140;11.530;2023-05-07T14:08:24;6.15;;;1.70;;
19161;SDS011;9713;48.140;11.530;2023-05-07T14:12:07;3.00;;;1.50;;
19161;SDS011;9713;48.140;11.530;2023-05-07T14:15:49;3.03;;;1.63;;
19161;SDS011;9713;48.140;11.530;2023-05-07T14:19:32;4.70;;;3.47;;
19161;SDS011;9713;48.140;11.530;2023-05-07T14:23:15;3.40;;;2.10;;
19161;SDS011;9713;48.140;11.530;2023-05-07T14:27:00;3.97;;;1.80;;
19161;SDS011;9713;48.140;11.530;2023-05-07T14:30:42;3.33;;;1.80;;
19161;SDS011;9713;48.140;11.530;2023-05-07T14:34:26;2.25;;;1.80;;
19161;SDS011;9713;48.140;11.530;2023-05-07T14:38:08;4.32;;;2.10;;
19161;SDS011;9713;48.140;11.530;2023-05-07T14:41:51;1.98;;;1.77;;
19161;SDS011;9713;48.140;11.530;2023-05-07T14:45:37;4.25;;;2.58;;
19161;SDS011;9713;48.140;11.530;2023-05-07T14:49:20;5.03;;;3.40;;
19161;SDS011;9713;48.140;11.530;2023-05-07T14:53:02;5.93;;;2.60;;
19161;SDS011;9713;48.140;11.530;2023-05-07T14:56:45;6.20;;;3.22;;
19161;SDS011;9713;48.140;11.530;2023-05-07T15:00:28;3.55;;;3.10;;
19161;SDS011;9713;48.140;11.530;2023-05-07T15:04:12;4.10;;;2.80;;
19161;SDS011;9713;48.140;11.530;2023-05-07T15:07:55;3.58;;;2.15;;
19161;SDS011;9713;48.140;11.530;2023-05-07T15:11:38;3.13;;;2.30;;
19161;SDS011;9713;48.140;11.530;2023-05-07T15:15:20;2.75;;;2.28;;
19161;SDS011;9713;48.140;11.530;2023-05-07T15:19:03;3.40;;;2.67;;
19161;SDS011;9713;48.140;11.530;2023-05-07T15:22:47;6.13;;;2.33;;
19161;SDS011;9713;48.140;11.530;2023-05-07T15:26:30;2.92;;;2.20;;
19161;SDS011;9713;48.140;11.530;2023-05-07T15:30:13;2.90;;;2.55;;
19161;SDS011;9713;48.140;11.530;2023-05-07T15:33:56;3.50;;;2.20;;
19161;SDS011;9713;48.140;11.530;2023-05-07T15:37:39;4.60;;;2.80;;
19161;SDS011;9713;48.140;11.530;2023-05-07T15:41:24;2.92;;;2.20;;
19161;SDS011;9713;48.140;11.530;2023-05-07T15:45:07;4.03;;;2.05;;
19161;SDS011;9713;48.140;11.530;2023-05-07T15:48:52;2.72;;;2.38;;
19161;SDS011;9713;48.140;11.530;2023-05-07T15:52:35;3.97;;;2.95;;
19161;SDS011;9713;48.140;11.530;2023-05-07T15:56:19;4.65;;;2.30;;
19161;SDS011;9713;48.140;11.530;2023-05-07T16:00:03;3.95;;;2.78;;
19161;SDS011;9713;48.140;11.530;2023-05-07T16:03:49;6.07;;;2.63;;
19161;SDS011;9713;48.140;11.530;2023-05-07T16:07:32;3.72;;;2.10;;
19161;SDS011;9713;48.140;11.530;2023-05-07T16:11:15;5.30;;;2.58;;
19161;SDS011;9713;48.140;11.530;2023-05-07T16:15:00;3.47;;;2.58;;
19161;SDS011;9713;48.140;11.530;2023-05-07T16:18:44;5.28;;;2.92;;
19161;SDS011;9713;48.140;11.530;2023-05-07T16:22:27;3.80;;;2.63;;
19161;SDS011;9713;48.140;11.530;2023-05-07T16:26:10;2.80;;;1.98;;
19161;SDS011;9713;48.140;11.530;2023-05-07T16:29:55;2.33;;;2.00;;
19161;SDS011;9713;48.140;11.530;2023-05-07T16:33:38;8.18;;;2.20;;
19161;SDS011;9713;48.140;11.530;2023-05-07T16:37:22;3.63;;;1.80;;
19161;SDS011;9713;48.140;11.530;2023-05-07T16:41:05;3.78;;;1.90;;
19161;SDS011;9713;48.140;11.530;2023-05-07T16:44:48;5.30;;;2.30;;
19161;SDS011;9713;48.140;11.530;2023-05-07T16:48:30;3.10;;;2.30;;
19161;SDS011;9713;48.140;11.530;2023-05-07T16:52:13;3.90;;;2.10;;
19161;SDS011;9713;48.140;11.530;2023-05-07T16:55:57;2.53;;;1.95;;
19161;SDS011;9713;48.140;11.530;2023-05-07T16:59:40;3.08;;;2.15;;
19161;SDS011;9713;48.140;11.530;2023-05-07T17:03:22;3.30;;;2.33;;
19161;SDS011;9713;48.140;11.530;2023-05-07T17:07:05;3.22;;;2.13;;
19161;SDS011;9713;48.140;11.530;2023-05-07T17:10:48;4.15;;;2.47;;
19161;SDS011;9713;48.140;11.530;2023-05-07T17:14:32;4.68;;;2.20;;
19161;SDS011;9713;48.140;11.530;2023-05-07T17:18:15;2.47;;;1.98;;
19161;SDS011;9713;48.140;11.530;2023-05-07T17:21:58;4.97;;;3.00;;
19161;SDS011;9713;48.140;11.530;2023-05-07T17:25:43;5.03;;;2.70;;
19161;SDS011;9713;48.140;11.530;2023-05-07T17:29:26;4.82;;;2.92;;
19161;SDS011;9713;48.140;11.530;2023-05-07T17:33:12;32.90;;;12.93;;
19161;SDS011;9713;48.140;11.530;2023-05-07T17:37:02;2.95;;;2.17;;
19161;SDS011;9713;48.140;11.530;2023-05-07T17:40:45;5.50;;;3.10;;
19161;SDS011;9713;48.140;11.530;2023-05-07T17:44:28;3.92;;;2.33;;
19161;SDS011;9713;48.140;11.530;2023-05-07T17:48:12;2.58;;;2.00;;
19161;SDS011;9713;48.140;11.530;2023-05-07T17:51:55;2.40;;;2.20;;
19161;SDS011;9713;48.140;11.530;2023-05-07T17:55:39;5.88;;;2.40;;
19161;SDS011;9713;48.140;11.530;2023-05-07T17:59:23;3.92;;;2.40;;
19161;SDS011;9713;48.140;11.530;2023-05-07T18:03:06;3.80;;;2.92;;
19161;SDS011;9713;48.140;11.530;2023-05-07T18:06:50;2.90;;;2.20;;
19161;SDS011;9713;48.140;11.530;2023-05-07T18:10:33;3.95;;;1.88;;
19161;SDS011;9713;48.140;11.530;2023-05-07T18:14:16;3.67;;;2.40;;
19161;SDS011;9713;48.140;11.530;2023-05-07T18:17:58;2.85;;;2.15;;
19161;SDS011;9713;48.140;11.530;2023-05-07T18:21:41;2.83;;;2.37;;
19161;SDS011;9713;48.140;11.530;2023-05-07T18:25:26;3.08;;;2.10;;
19161;SDS011;9713;48.140;11.530;2023-05-07T18:29:08;2.38;;;2.15;;
19161;SDS011;9713;48.140;11.530;2023-05-07T18:32:51;2.22;;;1.92;;
19161;SDS011;9713;48.140;11.530;2023-05-07T18:36:34;3.13;;;2.75;;
19161;SDS011;9713;48.140;11.530;2023-05-07T18:40:17;3.97;;;2.67;;
19161;SDS011;9713;48.140;11.530;2023-05-07T18:44:02;7.43;;;3.00;;
19161;SDS011;9713;48.140;11.530;2023-05-07T18:47:45;5.28;;;2.28;;
19161;SDS011;9713;48.140;11.530;2023-05-07T18:51:28;3.28;;;2.30;;
19161;SDS011;9713;48.140;11.530;2023-05-07T18:55:11;4.63;;;2.30;;
19161;SDS011;9713;48.140;11.530;2023-05-07T18:58:54;3.60;;;2.30;;
19161;SDS011;9713;48.140;11.530;2023-05-07T19:02:38;4.47;;;2.58;;
19161;SDS011;9713;48.140;11.530;2023-05-07T19:06:20;2.90;;;2.10;;
19161;SDS011;9713;48.140;11.530;2023-05-07T19:10:03;3.55;;;2.30;;
19161;SDS011;9713;48.140;11.530;2023-05-07T19:13:47;3.00;;;2.40;;
19161;SDS011;9713;48.140;11.530;2023-05-07T19:17:30;4.57;;;2.70;;
19161;SDS011;9713;48.140;11.530;2023-05-07T19:21:14;3.97;;;2.45;;
19161;SDS011;9713;48.140;11.530;2023-05-07T19:24:56;2.85;;;2.00;;
19161;SDS011;9713;48.140;11.530;2023-05-07T19:28:39;4.47;;;2.20;;
19161;SDS011;9713;48.140;11.530;2023-05-07T19:32:28;2.90;;;2.15;;
19161;SDS011;9713;48.140;11.530;2023-05-07T19:36:11;3.30;;;2.53;;
19161;SDS011;9713;48.140;11.530;2023-05-07T19:39:55;3.53;;;2.70;;
19161;SDS011;9713;48.140;11.530;2023-05-07T19:43:38;6.68;;;4.50;;
19161;SDS011;9713;48.140;11.530;2023-05-07T19:47:21;10.77;;;4.50;;
19161;SDS011;9713;48.140;11.530;2023-05-07T19:51:04;7.78;;;5.00;;
19161;SDS011;9713;48.140;11.530;2023-05-07T19:54:47;5.40;;;3.88;;
19161;SDS011;9713;48.140;11.530;2023-05-07T19:58:31;7.60;;;3.80;;
19161;SDS011;9713;48.140;11.530;2023-05-07T20:02:13;5.80;;;4.32;;
19161;SDS011;9713;48.140;11.530;2023-05-07T20:05:57;7.53;;;4.05;;
19161;SDS011;9713;48.140;11.530;2023-05-07T20:09:40;7.10;;;5.00;;
19161;SDS011;9713;48.140;11.530;2023-05-07T20:13:22;5.82;;;4.80;;
19161;SDS011;9713;48.140;11.530;2023-05-07T20:17:08;7.03;;;5.18;;
19161;SDS011;9713;48.140;11.530;2023-05-07T20:20:51;6.20;;;4.70;;
19161;SDS011;9713;48.140;11.530;2023-05-07T20:24:35;5.50;;;4.65;;
19161;SDS011;9713;48.140;11.530;2023-05-07T20:28:19;10.27;;;6.88;;
19161;SDS011;9713;48.140;11.530;2023-05-07T20:32:02;9.48;;;5.43;;
19161;SDS011;9713;48.140;11.530;2023-05-07T20:35:46;10.80;;;7.13;;
19161;SDS011;9713;48.140;11.530;2023-05-07T20:39:29;7.10;;;5.40;;
19161;SDS011;9713;48.140;11.530;2023-05-07T20:43:12;6.37;;;5.23;;
19161;SDS011;9713;48.140;11.530;2023-05-07T20:46:54;6.87;;;5.63;;
19161;SDS011;9713;48.140;11.530;2023-05-07T20:50:37;7.15;;;5.45;;
19161;SDS011;9713;48.140;11.530;2023-05-07T20:54:21;6.90;;;5.20;;
19161;SDS011;9713;48.140;11.530;2023-05-07T20:58:04;9.20;;;6.22;;
19161;SDS011;9713;48.140;11.530;2023-05-07T21:01:47;7.53;;;5.57;;
19161;SDS011;9713;48.140;11.530;2023-05-07T21:05:29;7.13;;;5.57;;
19161;SDS011;9713;48.140;11.530;2023-05-07T21:09:12;7.03;;;5.57;;
19161;SDS011;9713;48.140;11.530;2023-05-07T21:12:57;7.27;;;5.90;;
19161;SDS011;9713;48.140;11.530;2023-05-07T21:16:39;17.95;;;5.45;;
19161;SDS011;9713;48.140;11.530;2023-05-07T21:20:23;8.20;;;5.87;;
19161;SDS011;9713;48.140;11.530;2023-05-07T21:24:06;6.97;;;5.93;;
19161;SDS011;9713;48.140;11.530;2023-05-07T21:27:49;11.45;;;7.00;;
19161;SDS011;9713;48.140;11.530;2023-05-07T21:31:34;8.53;;;6.20;;
19161;SDS011;9713;48.140;11.530;2023-05-07T21:35:17;8.00;;;6.55;;
19161;SDS011;9713;48.140;11.530;2023-05-07T21:39:00;7.80;;;6.35;;
19161;SDS011;9713;48.140;11.530;2023-05-07T21:42:43;9.35;;;6.45;;
19161;SDS011;9713;48.140;11.530;2023-05-07T21:46:26;9.02;;;6.50;;
19161;SDS011;9713;48.140;11.530;2023-05-07T21:50:11;7.47;;;6.30;;
19161;SDS011;9713;48.140;11.530;2023-05-07T21:53:54;8.05;;;6.28;;
19161;SDS011;9713;48.140;11.530;2023-05-07T21:57:38;7.72;;;6.82;;
19161;SDS011;9713;48.140;11.530;2023-05-07T22:01:24;7.33;;;6.50;;
19161;SDS011;9713;48.140;11.530;2023-05-07T22:05:11;9.10;;;6.73;;
19161;SDS011;9713;48.140;11.530;2023-05-07T22:08:53;8.65;;;6.68;;
19161;SDS011;9713;48.140;11.530;2023-05-07T22:12:36;9.43;;;6.80;;
19161;SDS011;9713;48.140;11.530;2023-05-07T22:16:19;9.45;;;7.28;;
19161;SDS011;9713;48.140;11.530;2023-05-07T22:20:03;11.37;;;7.10;;
19161;SDS011;9713;48.140;11.530;2023-05-07T22:23:48;10.50;;;7.67;;
19161;SDS011;9713;48.140;11.530;2023-05-07T22:27:30;10.82;;;7.50;;
19161;SDS011;9713;48.140;11.530;2023-05-07T22:31:13;9.77;;;7.88;;
19161;SDS011;9713;48.140;11.530;2023-05-07T22:34:56;9.90;;;7.93;;
19161;SDS011;9713;48.140;11.530;2023-05-07T22:38:38;9.73;;;7.07;;
19161;SDS011;9713;48.140;11.530;2023-05-07T22:42:23;10.17;;;7.70;;